sensor_id;sensor_type;location;lat;lon;timestamp;P1;durP1;ratioP1;P2;durP2;ratioP2
11006;SDS011;8186;57.652;11.968;2023-02-28T00:00:37;3.33;;;2.60;;
11006;SDS011;8186;57.652;11.968;2023-02-28T00:03:04;7.90;;;2.80;;
11006;SDS011;8186;57.652;11.968;2023-02-28T00:05:31;5.60;;;2.90;;
11006;SDS011;8186;57.652;11.968;2023-02-28T00:08:01;4.20;;;3.07;;
11006;SDS011;8186;57.652;11.968;2023-02-28T00:10:28;5.60;;;2.90;;
11006;SDS011;8186;57.652;11.968;2023-02-28T00:12:58;3.90;;;2.50;;
11006;SDS011;8186;57.652;11.968;2023-02-28T00:15:26;3.40;;;2.90;;
11006;SDS011;8186;57.652;11.968;2023-02-28T00:17:53;4.20;;;2.67;;
11006;SDS011;8186;57.652;11.968;2023-02-28T00:20:20;5.23;;;2.80;;
11006;SDS011;8186;57.652;11.968;2023-02-28T00:22:48;3.73;;;2.70;;
11006;SDS011;8186;57.652;11.968;2023-02-28T00:25:18;5.07;;;2.80;;
11006;SDS011;8186;57.652;11.968;2023-02-28T00:27:46;6.33;;;2.37;;
11006;SDS011;8186;57.652;11.968;2023-02-28T00:30:13;4.13;;;2.63;;
11006;SDS011;8186;57.652;11.968;2023-02-28T00:32:41;4.00;;;2.50;;
11006;SDS011;8186;57.652;11.968;2023-02-28T00:35:09;7.20;;;2.80;;
11006;SDS011;8186;57.652;11.968;2023-02-28T00:37:37;6.20;;;3.00;;
11006;SDS011;8186;57.652;11.968;2023-02-28T00:40:04;4.17;;;3.00;;
11006;SDS011;8186;57.652;11.968;2023-02-28T00:42:34;5.73;;;2.90;;
11006;SDS011;8186;57.652;11.968;2023-02-28T00:45:01;4.20;;;2.53;;
11006;SDS011;8186;57.652;11.968;2023-02-28T00:47:29;4.60;;;2.83;;
11006;SDS011;8186;57.652;11.968;2023-02-28T00:49:56;7.97;;;2.90;;
11006;SDS011;8186;57.652;11.968;2023-02-28T00:52:23;4.47;;;2.67;;
11006;SDS011;8186;57.652;11.968;2023-02-28T00:54:50;4.27;;;2.60;;
11006;SDS011;8186;57.652;11.968;2023-02-28T00:57:17;3.00;;;2.40;;
11006;SDS011;8186;57.652;11.968;2023-02-28T00:59:45;5.47;;;3.63;;
11006;SDS011;8186;57.652;11.968;2023-02-28T01:02:12;4.23;;;2.30;;
11006;SDS011;8186;57.652;11.968;2023-02-28T01:04:39;6.40;;;2.20;;
11006;SDS011;8186;57.652;11.968;2023-02-28T01:07:06;3.63;;;2.33;;
11006;SDS011;8186;57.652;11.968;2023-02-28T01:09:33;3.37;;;2.17;;
11006;SDS011;8186;57.652;11.968;2023-02-28T01:12:00;3.57;;;2.40;;
11006;SDS011;8186;57.652;11.968;2023-02-28T01:14:27;4.33;;;2.60;;
11006;SDS011;8186;57.652;11.968;2023-02-28T01:16:55;2.93;;;2.40;;
11006;SDS011;8186;57.652;11.968;2023-02-28T01:19:22;3.90;;;2.30;;
11006;SDS011;8186;57.652;11.968;2023-02-28T01:21:49;6.30;;;2.33;;
11006;SDS011;8186;57.652;11.968;2023-02-28T01:24:16;3.73;;;2.50;;
11006;SDS011;8186;57.652;11.968;2023-02-28T01:26:43;4.87;;;2.80;;
11006;SDS011;8186;57.652;11.968;2023-02-28T01:29:09;6.37;;;2.23;;
11006;SDS011;8186;57.652;11.968;2023-02-28T01:31:36;5.27;;;2.63;;
11006;SDS011;8186;57.652;11.968;2023-02-28T01:34:05;6.13;;;2.53;;
11006;SDS011;8186;57.652;11.968;2023-02-28T01:36:31;4.83;;;2.80;;
11006;SDS011;8186;57.652;11.968;2023-02-28T01:38:58;4.97;;;2.73;;
11006;SDS011;8186;57.652;11.968;2023-02-28T01:41:26;6.83;;;2.83;;
11006;SDS011;8186;57.652;11.968;2023-02-28T01:43:56;4.43;;;3.13;;
11006;SDS011;8186;57.652;11.968;2023-02-28T01:46:28;3.67;;;2.47;;
11006;SDS011;8186;57.652;11.968;2023-02-28T01:48:57;5.67;;;3.20;;
11006;SDS011;8186;57.652;11.968;2023-02-28T01:51:29;3.83;;;2.73;;
11006;SDS011;8186;57.652;11.968;2023-02-28T01:54:01;4.07;;;2.67;;
11006;SDS011;8186;57.652;11.968;2023-02-28T01:56:30;5.53;;;2.67;;
11006;SDS011;8186;57.652;11.968;2023-02-28T01:59:00;3.20;;;2.50;;
11006;SDS011;8186;57.652;11.968;2023-02-28T02:01:27;3.60;;;2.60;;
11006;SDS011;8186;57.652;11.968;2023-02-28T02:03:55;5.47;;;2.43;;
11006;SDS011;8186;57.652;11.968;2023-02-28T02:06:23;4.53;;;2.77;;
11006;SDS011;8186;57.652;11.968;2023-02-28T02:08:53;5.13;;;2.90;;
11006;SDS011;8186;57.652;11.968;2023-02-28T02:11:21;5.07;;;2.83;;
11006;SDS011;8186;57.652;11.968;2023-02-28T02:13:53;5.33;;;2.80;;
11006;SDS011;8186;57.652;11.968;2023-02-28T02:16:42;5.53;;;3.17;;
11006;SDS011;8186;57.652;11.968;2023-02-28T02:19:20;5.03;;;2.40;;
11006;SDS011;8186;57.652;11.968;2023-02-28T02:22:03;3.33;;;2.57;;
11006;SDS011;8186;57.652;11.968;2023-02-28T02:33:42;7.23;;;2.77;;
11006;SDS011;8186;57.652;11.968;2023-02-28T02:36:47;4.23;;;2.50;;
11006;SDS011;8186;57.652;11.968;2023-02-28T02:39:17;4.53;;;2.50;;
11006;SDS011;8186;57.652;11.968;2023-02-28T02:41:49;4.90;;;2.50;;
11006;SDS011;8186;57.652;11.968;2023-02-28T02:44:19;8.47;;;3.23;;
11006;SDS011;8186;57.652;11.968;2023-02-28T02:46:48;7.00;;;2.40;;
11006;SDS011;8186;57.652;11.968;2023-02-28T02:49:18;10.33;;;2.57;;
11006;SDS011;8186;57.652;11.968;2023-02-28T02:51:48;5.33;;;2.17;;
11006;SDS011;8186;57.652;11.968;2023-02-28T02:54:17;6.23;;;2.27;;
11006;SDS011;8186;57.652;11.968;2023-02-28T02:56:46;5.10;;;2.73;;
11006;SDS011;8186;57.652;11.968;2023-02-28T02:59:15;5.37;;;2.37;;
11006;SDS011;8186;57.652;11.968;2023-02-28T03:01:46;4.37;;;2.20;;
11006;SDS011;8186;57.652;11.968;2023-02-28T03:04:16;5.33;;;2.27;;
11006;SDS011;8186;57.652;11.968;2023-02-28T03:06:43;3.87;;;2.40;;
11006;SDS011;8186;57.652;11.968;2023-02-28T03:09:12;4.03;;;1.97;;
11006;SDS011;8186;57.652;11.968;2023-02-28T03:11:39;4.30;;;2.60;;
11006;SDS011;8186;57.652;11.968;2023-02-28T03:14:20;6.97;;;2.70;;
11006;SDS011;8186;57.652;11.968;2023-02-28T03:19:51;10.20;;;2.73;;
11006;SDS011;8186;57.652;11.968;2023-02-28T03:22:32;3.60;;;2.53;;
11006;SDS011;8186;57.652;11.968;2023-02-28T03:25:20;3.30;;;2.10;;
11006;SDS011;8186;57.652;11.968;2023-02-28T03:27:53;5.00;;;2.63;;
11006;SDS011;8186;57.652;11.968;2023-02-28T03:30:33;4.47;;;2.40;;
11006;SDS011;8186;57.652;11.968;2023-02-28T03:33:06;3.30;;;2.37;;
11006;SDS011;8186;57.652;11.968;2023-02-28T03:35:36;2.73;;;2.00;;
11006;SDS011;8186;57.652;11.968;2023-02-28T03:38:06;3.87;;;2.10;;
11006;SDS011;8186;57.652;11.968;2023-02-28T03:40:40;3.00;;;1.90;;
11006;SDS011;8186;57.652;11.968;2023-02-28T03:43:13;2.80;;;2.40;;
11006;SDS011;8186;57.652;11.968;2023-02-28T03:45:44;3.87;;;2.50;;
11006;SDS011;8186;57.652;11.968;2023-02-28T03:48:13;3.83;;;2.47;;
11006;SDS011;8186;57.652;11.968;2023-02-28T03:50:43;6.70;;;2.33;;
11006;SDS011;8186;57.652;11.968;2023-02-28T03:53:14;2.67;;;2.20;;
11006;SDS011;8186;57.652;11.968;2023-02-28T03:55:44;4.30;;;2.10;;
11006;SDS011;8186;57.652;11.968;2023-02-28T03:58:15;3.53;;;1.90;;
11006;SDS011;8186;57.652;11.968;2023-02-28T04:00:45;3.37;;;2.03;;
11006;SDS011;8186;57.652;11.968;2023-02-28T04:03:13;3.07;;;2.50;;
11006;SDS011;8186;57.652;11.968;2023-02-28T04:05:46;3.90;;;2.00;;
11006;SDS011;8186;57.652;11.968;2023-02-28T04:08:14;5.37;;;2.77;;
11006;SDS011;8186;57.652;11.968;2023-02-28T04:10:41;3.87;;;2.20;;
11006;SDS011;8186;57.652;11.968;2023-02-28T04:13:12;3.67;;;2.03;;
11006;SDS011;8186;57.652;11.968;2023-02-28T04:15:39;2.73;;;2.03;;
11006;SDS011;8186;57.652;11.968;2023-02-28T04:18:06;4.63;;;2.60;;
11006;SDS011;8186;57.652;11.968;2023-02-28T04:20:33;3.03;;;2.50;;
11006;SDS011;8186;57.652;11.968;2023-02-28T04:23:00;5.03;;;2.17;;
11006;SDS011;8186;57.652;11.968;2023-02-28T04:25:27;4.40;;;2.07;;
11006;SDS011;8186;57.652;11.968;2023-02-28T04:27:55;5.07;;;2.47;;
11006;SDS011;8186;57.652;11.968;2023-02-28T04:30:22;3.87;;;2.27;;
11006;SDS011;8186;57.652;11.968;2023-02-28T04:32:49;2.97;;;2.17;;
11006;SDS011;8186;57.652;11.968;2023-02-28T04:35:16;3.70;;;2.20;;
11006;SDS011;8186;57.652;11.968;2023-02-28T04:37:42;3.60;;;2.40;;
11006;SDS011;8186;57.652;11.968;2023-02-28T04:40:10;4.40;;;2.37;;
11006;SDS011;8186;57.652;11.968;2023-02-28T04:42:37;4.03;;;2.20;;
11006;SDS011;8186;57.652;11.968;2023-02-28T04:45:06;3.13;;;2.23;;
11006;SDS011;8186;57.652;11.968;2023-02-28T04:47:35;4.20;;;2.30;;
11006;SDS011;8186;57.652;11.968;2023-02-28T04:50:02;2.50;;;1.93;;
11006;SDS011;8186;57.652;11.968;2023-02-28T04:52:29;4.57;;;2.10;;
11006;SDS011;8186;57.652;11.968;2023-02-28T04:54:56;4.17;;;2.10;;
11006;SDS011;8186;57.652;11.968;2023-02-28T04:57:23;7.93;;;2.10;;
11006;SDS011;8186;57.652;11.968;2023-02-28T04:59:50;2.57;;;2.00;;
11006;SDS011;8186;57.652;11.968;2023-02-28T05:02:18;6.13;;;2.00;;
11006;SDS011;8186;57.652;11.968;2023-02-28T05:04:46;2.97;;;1.97;;
11006;SDS011;8186;57.652;11.968;2023-02-28T05:07:13;2.50;;;2.07;;
11006;SDS011;8186;57.652;11.968;2023-02-28T05:09:40;2.77;;;2.23;;
11006;SDS011;8186;57.652;11.968;2023-02-28T05:12:07;3.50;;;2.00;;
11006;SDS011;8186;57.652;11.968;2023-02-28T05:14:35;2.97;;;2.30;;
11006;SDS011;8186;57.652;11.968;2023-02-28T05:17:02;3.93;;;2.53;;
11006;SDS011;8186;57.652;11.968;2023-02-28T05:19:30;3.73;;;2.10;;
11006;SDS011;8186;57.652;11.968;2023-02-28T05:21:57;4.33;;;2.07;;
11006;SDS011;8186;57.652;11.968;2023-02-28T05:24:24;2.03;;;1.73;;
11006;SDS011;8186;57.652;11.968;2023-02-28T05:26:52;3.50;;;1.87;;
11006;SDS011;8186;57.652;11.968;2023-02-28T05:29:19;3.30;;;2.07;;
11006;SDS011;8186;57.652;11.968;2023-02-28T05:31:46;2.87;;;2.50;;
11006;SDS011;8186;57.652;11.968;2023-02-28T05:34:13;3.27;;;2.33;;
11006;SDS011;8186;57.652;11.968;2023-02-28T05:36:42;2.80;;;2.00;;
11006;SDS011;8186;57.652;11.968;2023-02-28T05:39:09;3.13;;;2.23;;
11006;SDS011;8186;57.652;11.968;2023-02-28T05:41:38;2.27;;;1.87;;
11006;SDS011;8186;57.652;11.968;2023-02-28T05:44:06;3.37;;;1.70;;
11006;SDS011;8186;57.652;11.968;2023-02-28T05:46:33;3.30;;;2.00;;
11006;SDS011;8186;57.652;11.968;2023-02-28T05:49:00;3.83;;;2.17;;
11006;SDS011;8186;57.652;11.968;2023-02-28T05:51:27;3.23;;;1.97;;
11006;SDS011;8186;57.652;11.968;2023-02-28T05:53:57;3.40;;;2.17;;
11006;SDS011;8186;57.652;11.968;2023-02-28T05:56:25;3.27;;;2.00;;
11006;SDS011;8186;57.652;11.968;2023-02-28T05:58:52;4.57;;;2.10;;
11006;SDS011;8186;57.652;11.968;2023-02-28T06:01:20;3.30;;;1.67;;
11006;SDS011;8186;57.652;11.968;2023-02-28T06:03:50;2.77;;;1.87;;
11006;SDS011;8186;57.652;11.968;2023-02-28T06:06:16;2.80;;;2.17;;
11006;SDS011;8186;57.652;11.968;2023-02-28T06:08:43;3.87;;;1.80;;
11006;SDS011;8186;57.652;11.968;2023-02-28T06:11:12;3.70;;;1.90;;
11006;SDS011;8186;57.652;11.968;2023-02-28T06:13:39;4.37;;;2.10;;
11006;SDS011;8186;57.652;11.968;2023-02-28T06:16:06;6.17;;;1.90;;
11006;SDS011;8186;57.652;11.968;2023-02-28T06:18:34;3.43;;;1.87;;
11006;SDS011;8186;57.652;11.968;2023-02-28T06:21:01;3.33;;;2.10;;
11006;SDS011;8186;57.652;11.968;2023-02-28T06:23:28;3.47;;;1.70;;
11006;SDS011;8186;57.652;11.968;2023-02-28T06:25:54;4.17;;;1.83;;
11006;SDS011;8186;57.652;11.968;2023-02-28T06:28:25;4.90;;;2.50;;
11006;SDS011;8186;57.652;11.968;2023-02-28T06:30:52;4.43;;;1.97;;
11006;SDS011;8186;57.652;11.968;2023-02-28T06:33:19;2.57;;;1.80;;
11006;SDS011;8186;57.652;11.968;2023-02-28T06:35:46;4.97;;;2.10;;
11006;SDS011;8186;57.652;11.968;2023-02-28T06:38:13;7.20;;;2.30;;
11006;SDS011;8186;57.652;11.968;2023-02-28T06:40:40;4.47;;;2.20;;
11006;SDS011;8186;57.652;11.968;2023-02-28T06:43:07;4.50;;;2.40;;
11006;SDS011;8186;57.652;11.968;2023-02-28T06:45:38;4.77;;;2.10;;
11006;SDS011;8186;57.652;11.968;2023-02-28T06:48:08;9.57;;;2.23;;
11006;SDS011;8186;57.652;11.968;2023-02-28T06:50:35;4.23;;;2.30;;
11006;SDS011;8186;57.652;11.968;2023-02-28T06:53:02;3.23;;;2.40;;
11006;SDS011;8186;57.652;11.968;2023-02-28T06:55:29;6.63;;;2.20;;
11006;SDS011;8186;57.652;11.968;2023-02-28T06:57:56;3.63;;;1.93;;
11006;SDS011;8186;57.652;11.968;2023-02-28T07:00:23;4.40;;;2.03;;
11006;SDS011;8186;57.652;11.968;2023-02-28T07:02:52;4.13;;;2.17;;
11006;SDS011;8186;57.652;11.968;2023-02-28T07:05:20;6.80;;;2.40;;
11006;SDS011;8186;57.652;11.968;2023-02-28T07:07:47;5.17;;;2.23;;
11006;SDS011;8186;57.652;11.968;2023-02-28T07:10:14;5.60;;;2.80;;
11006;SDS011;8186;57.652;11.968;2023-02-28T07:12:42;4.70;;;2.70;;
11006;SDS011;8186;57.652;11.968;2023-02-28T07:15:09;4.17;;;2.50;;
11006;SDS011;8186;57.652;11.968;2023-02-28T07:17:37;8.30;;;2.83;;
11006;SDS011;8186;57.652;11.968;2023-02-28T07:20:06;4.33;;;3.10;;
11006;SDS011;8186;57.652;11.968;2023-02-28T07:22:33;3.70;;;2.67;;
11006;SDS011;8186;57.652;11.968;2023-02-28T07:25:00;6.07;;;3.00;;
11006;SDS011;8186;57.652;11.968;2023-02-28T07:27:27;7.47;;;2.60;;
11006;SDS011;8186;57.652;11.968;2023-02-28T07:29:54;7.20;;;3.23;;
11006;SDS011;8186;57.652;11.968;2023-02-28T07:32:21;6.03;;;3.03;;
11006;SDS011;8186;57.652;11.968;2023-02-28T07:34:48;4.07;;;3.20;;
11006;SDS011;8186;57.652;11.968;2023-02-28T07:37:16;11.00;;;3.93;;
11006;SDS011;8186;57.652;11.968;2023-02-28T07:39:43;11.73;;;4.57;;
11006;SDS011;8186;57.652;11.968;2023-02-28T07:42:10;18.53;;;5.50;;
11006;SDS011;8186;57.652;11.968;2023-02-28T07:44:38;19.47;;;6.53;;
11006;SDS011;8186;57.652;11.968;2023-02-28T07:47:06;33.40;;;6.80;;
11006;SDS011;8186;57.652;11.968;2023-02-28T07:49:34;44.97;;;10.70;;
11006;SDS011;8186;57.652;11.968;2023-02-28T07:52:01;22.73;;;6.50;;
11006;SDS011;8186;57.652;11.968;2023-02-28T07:54:30;29.80;;;9.00;;
11006;SDS011;8186;57.652;11.968;2023-02-28T07:56:57;27.43;;;8.77;;
11006;SDS011;8186;57.652;11.968;2023-02-28T07:59:24;36.00;;;7.93;;
11006;SDS011;8186;57.652;11.968;2023-02-28T08:01:51;21.43;;;7.53;;
11006;SDS011;8186;57.652;11.968;2023-02-28T08:04:18;37.57;;;8.50;;
11006;SDS011;8186;57.652;11.968;2023-02-28T08:06:45;36.00;;;9.13;;
11006;SDS011;8186;57.652;11.968;2023-02-28T08:09:12;24.27;;;8.57;;
11006;SDS011;8186;57.652;11.968;2023-02-28T08:11:42;52.53;;;9.37;;
11006;SDS011;8186;57.652;11.968;2023-02-28T08:14:09;40.27;;;8.07;;
11006;SDS011;8186;57.652;11.968;2023-02-28T08:16:36;44.87;;;8.37;;
11006;SDS011;8186;57.652;11.968;2023-02-28T08:19:03;20.87;;;6.00;;
11006;SDS011;8186;57.652;11.968;2023-02-28T08:21:30;47.63;;;7.13;;
11006;SDS011;8186;57.652;11.968;2023-02-28T08:23:59;34.20;;;6.20;;
11006;SDS011;8186;57.652;11.968;2023-02-28T08:26:26;52.87;;;7.83;;
11006;SDS011;8186;57.652;11.968;2023-02-28T08:28:54;40.77;;;6.87;;
11006;SDS011;8186;57.652;11.968;2023-02-28T08:31:21;35.07;;;5.47;;
11006;SDS011;8186;57.652;11.968;2023-02-28T08:33:48;22.47;;;5.43;;
11006;SDS011;8186;57.652;11.968;2023-02-28T08:36:17;21.07;;;5.27;;
11006;SDS011;8186;57.652;11.968;2023-02-28T08:38:45;30.30;;;6.47;;
11006;SDS011;8186;57.652;11.968;2023-02-28T08:41:12;37.53;;;5.97;;
11006;SDS011;8186;57.652;11.968;2023-02-28T08:43:39;42.70;;;7.07;;
11006;SDS011;8186;57.652;11.968;2023-02-28T08:46:08;33.00;;;6.93;;
11006;SDS011;8186;57.652;11.968;2023-02-28T08:48:38;25.97;;;6.87;;
11006;SDS011;8186;57.652;11.968;2023-02-28T08:51:07;39.90;;;7.83;;
11006;SDS011;8186;57.652;11.968;2023-02-28T08:53:41;14.17;;;5.70;;
11006;SDS011;8186;57.652;11.968;2023-02-28T08:56:09;25.23;;;5.53;;
11006;SDS011;8186;57.652;11.968;2023-02-28T08:58:37;17.33;;;5.80;;
11006;SDS011;8186;57.652;11.968;2023-02-28T09:01:14;22.50;;;6.10;;
11006;SDS011;8186;57.652;11.968;2023-02-28T09:03:43;39.33;;;7.23;;
11006;SDS011;8186;57.652;11.968;2023-02-28T09:06:11;19.10;;;6.47;;
11006;SDS011;8186;57.652;11.968;2023-02-28T09:08:39;42.60;;;7.23;;
11006;SDS011;8186;57.652;11.968;2023-02-28T09:11:06;29.93;;;6.23;;
11006;SDS011;8186;57.652;11.968;2023-02-28T09:13:34;20.50;;;6.17;;
11006;SDS011;8186;57.652;11.968;2023-02-28T09:16:02;36.90;;;6.33;;
11006;SDS011;8186;57.652;11.968;2023-02-28T09:18:33;43.97;;;7.63;;
11006;SDS011;8186;57.652;11.968;2023-02-28T09:21:02;22.67;;;6.63;;
11006;SDS011;8186;57.652;11.968;2023-02-28T09:23:29;48.47;;;9.10;;
11006;SDS011;8186;57.652;11.968;2023-02-28T09:25:56;31.20;;;5.90;;
11006;SDS011;8186;57.652;11.968;2023-02-28T09:28:23;17.60;;;5.57;;
11006;SDS011;8186;57.652;11.968;2023-02-28T09:30:51;35.23;;;6.20;;
11006;SDS011;8186;57.652;11.968;2023-02-28T09:33:19;44.30;;;8.43;;
11006;SDS011;8186;57.652;11.968;2023-02-28T09:35:48;53.37;;;7.80;;
11006;SDS011;8186;57.652;11.968;2023-02-28T09:38:15;33.63;;;6.87;;
11006;SDS011;8186;57.652;11.968;2023-02-28T09:40:45;23.93;;;6.53;;
11006;SDS011;8186;57.652;11.968;2023-02-28T09:43:15;38.87;;;7.33;;
11006;SDS011;8186;57.652;11.968;2023-02-28T09:45:45;56.03;;;9.00;;
11006;SDS011;8186;57.652;11.968;2023-02-28T09:48:16;64.17;;;8.63;;
11006;SDS011;8186;57.652;11.968;2023-02-28T09:50:45;23.87;;;6.93;;
11006;SDS011;8186;57.652;11.968;2023-02-28T09:53:16;22.00;;;6.63;;
11006;SDS011;8186;57.652;11.968;2023-02-28T09:55:47;15.00;;;4.60;;
11006;SDS011;8186;57.652;11.968;2023-02-28T09:58:18;18.83;;;5.33;;
11006;SDS011;8186;57.652;11.968;2023-02-28T10:00:47;28.00;;;5.73;;
11006;SDS011;8186;57.652;11.968;2023-02-28T10:03:23;30.57;;;6.93;;
11006;SDS011;8186;57.652;11.968;2023-02-28T10:05:54;26.20;;;5.07;;
11006;SDS011;8186;57.652;11.968;2023-02-28T10:08:25;32.17;;;5.53;;
11006;SDS011;8186;57.652;11.968;2023-02-28T10:10:57;38.63;;;4.57;;
11006;SDS011;8186;57.652;11.968;2023-02-28T10:13:25;24.67;;;4.33;;
11006;SDS011;8186;57.652;11.968;2023-02-28T10:15:58;43.07;;;6.53;;
11006;SDS011;8186;57.652;11.968;2023-02-28T10:18:28;15.20;;;5.17;;
11006;SDS011;8186;57.652;11.968;2023-02-28T10:20:59;9.77;;;4.90;;
11006;SDS011;8186;57.652;11.968;2023-02-28T10:23:27;21.13;;;4.87;;
11006;SDS011;8186;57.652;11.968;2023-02-28T10:25:57;17.90;;;5.10;;
11006;SDS011;8186;57.652;11.968;2023-02-28T10:28:26;7.80;;;3.90;;
11006;SDS011;8186;57.652;11.968;2023-02-28T10:30:56;6.43;;;4.30;;
11006;SDS011;8186;57.652;11.968;2023-02-28T10:33:24;12.73;;;4.30;;
11006;SDS011;8186;57.652;11.968;2023-02-28T10:35:52;5.50;;;3.97;;
11006;SDS011;8186;57.652;11.968;2023-02-28T10:38:21;7.20;;;4.47;;
11006;SDS011;8186;57.652;11.968;2023-02-28T10:40:49;11.00;;;4.23;;
11006;SDS011;8186;57.652;11.968;2023-02-28T10:43:20;4.60;;;4.03;;
11006;SDS011;8186;57.652;11.968;2023-02-28T10:45:52;6.30;;;4.30;;
11006;SDS011;8186;57.652;11.968;2023-02-28T10:48:27;5.50;;;4.27;;
11006;SDS011;8186;57.652;11.968;2023-02-28T10:50:56;4.50;;;3.97;;
11006;SDS011;8186;57.652;11.968;2023-02-28T10:53:33;5.43;;;4.60;;
11006;SDS011;8186;57.652;11.968;2023-02-28T10:56:02;9.50;;;5.13;;
11006;SDS011;8186;57.652;11.968;2023-02-28T10:58:34;7.50;;;4.70;;
11006;SDS011;8186;57.652;11.968;2023-02-28T11:01:12;8.90;;;5.10;;
11006;SDS011;8186;57.652;11.968;2023-02-28T11:03:40;9.30;;;4.93;;
11006;SDS011;8186;57.652;11.968;2023-02-28T11:06:07;11.43;;;5.00;;
11006;SDS011;8186;57.652;11.968;2023-02-28T11:08:45;8.57;;;5.00;;
11006;SDS011;8186;57.652;11.968;2023-02-28T11:11:13;7.70;;;4.87;;
11006;SDS011;8186;57.652;11.968;2023-02-28T11:13:42;6.40;;;4.57;;
11006;SDS011;8186;57.652;11.968;2023-02-28T11:16:11;6.13;;;4.20;;
11006;SDS011;8186;57.652;11.968;2023-02-28T11:18:40;5.60;;;4.13;;
11006;SDS011;8186;57.652;11.968;2023-02-28T11:21:09;8.67;;;5.20;;
11006;SDS011;8186;57.652;11.968;2023-02-28T11:23:36;8.97;;;4.80;;
11006;SDS011;8186;57.652;11.968;2023-02-28T11:26:08;5.53;;;4.17;;
11006;SDS011;8186;57.652;11.968;2023-02-28T11:28:37;5.80;;;3.73;;
11006;SDS011;8186;57.652;11.968;2023-02-28T11:31:15;5.30;;;3.83;;
11006;SDS011;8186;57.652;11.968;2023-02-28T11:33:45;5.93;;;3.67;;
11006;SDS011;8186;57.652;11.968;2023-02-28T11:36:16;7.30;;;3.50;;
11006;SDS011;8186;57.652;11.968;2023-02-28T11:38:45;6.60;;;4.10;;
11006;SDS011;8186;57.652;11.968;2023-02-28T11:41:25;19.57;;;4.33;;
11006;SDS011;8186;57.652;11.968;2023-02-28T11:44:15;10.27;;;3.93;;
11006;SDS011;8186;57.652;11.968;2023-02-28T11:46:48;6.50;;;3.90;;
11006;SDS011;8186;57.652;11.968;2023-02-28T11:49:23;7.63;;;4.03;;
11006;SDS011;8186;57.652;11.968;2023-02-28T11:51:57;5.47;;;4.00;;
11006;SDS011;8186;57.652;11.968;2023-02-28T11:54:39;5.63;;;4.00;;
11006;SDS011;8186;57.652;11.968;2023-02-28T11:57:21;10.10;;;4.10;;
11006;SDS011;8186;57.652;11.968;2023-02-28T12:00:01;7.37;;;3.97;;
11006;SDS011;8186;57.652;11.968;2023-02-28T12:02:32;7.57;;;4.13;;
11006;SDS011;8186;57.652;11.968;2023-02-28T12:05:18;7.97;;;3.77;;
11006;SDS011;8186;57.652;11.968;2023-02-28T12:07:54;6.30;;;3.90;;
11006;SDS011;8186;57.652;11.968;2023-02-28T12:10:29;10.60;;;4.70;;
11006;SDS011;8186;57.652;11.968;2023-02-28T12:13:01;13.00;;;4.37;;
11006;SDS011;8186;57.652;11.968;2023-02-28T12:15:47;12.27;;;5.17;;
11006;SDS011;8186;57.652;11.968;2023-02-28T12:18:30;10.67;;;4.53;;
11006;SDS011;8186;57.652;11.968;2023-02-28T12:21:10;8.50;;;4.70;;
11006;SDS011;8186;57.652;11.968;2023-02-28T12:23:47;15.03;;;6.17;;
11006;SDS011;8186;57.652;11.968;2023-02-28T12:26:37;11.60;;;4.67;;
11006;SDS011;8186;57.652;11.968;2023-02-28T12:29:10;7.23;;;4.83;;
11006;SDS011;8186;57.652;11.968;2023-02-28T12:31:41;7.20;;;4.50;;
11006;SDS011;8186;57.652;11.968;2023-02-28T12:34:14;15.67;;;4.60;;
11006;SDS011;8186;57.652;11.968;2023-02-28T12:36:42;8.10;;;4.23;;
11006;SDS011;8186;57.652;11.968;2023-02-28T12:39:11;13.57;;;3.80;;
11006;SDS011;8186;57.652;11.968;2023-02-28T12:41:42;9.03;;;4.50;;
11006;SDS011;8186;57.652;11.968;2023-02-28T12:44:15;9.43;;;3.80;;
11006;SDS011;8186;57.652;11.968;2023-02-28T12:46:45;7.07;;;3.77;;
11006;SDS011;8186;57.652;11.968;2023-02-28T12:49:16;8.43;;;3.47;;
11006;SDS011;8186;57.652;11.968;2023-02-28T12:51:45;8.77;;;3.87;;
11006;SDS011;8186;57.652;11.968;2023-02-28T12:54:14;10.70;;;3.30;;
11006;SDS011;8186;57.652;11.968;2023-02-28T12:56:47;6.23;;;3.57;;
11006;SDS011;8186;57.652;11.968;2023-02-28T12:59:20;5.97;;;3.60;;
11006;SDS011;8186;57.652;11.968;2023-02-28T13:04:45;6.83;;;3.47;;
11006;SDS011;8186;57.652;11.968;2023-02-28T13:10:12;9.07;;;3.93;;
11006;SDS011;8186;57.652;11.968;2023-02-28T13:12:47;7.70;;;3.33;;
11006;SDS011;8186;57.652;11.968;2023-02-28T13:15:18;9.33;;;3.73;;
11006;SDS011;8186;57.652;11.968;2023-02-28T13:17:49;5.80;;;3.53;;
11006;SDS011;8186;57.652;11.968;2023-02-28T13:20:18;6.67;;;3.50;;
11006;SDS011;8186;57.652;11.968;2023-02-28T13:22:47;5.57;;;3.00;;
11006;SDS011;8186;57.652;11.968;2023-02-28T13:34:36;4.30;;;1.90;;
11006;SDS011;8186;57.652;11.968;2023-02-28T13:40:06;7.40;;;2.33;;
11006;SDS011;8186;57.652;11.968;2023-02-28T13:42:48;1.73;;;1.63;;
11006;SDS011;8186;57.652;11.968;2023-02-28T13:45:23;5.80;;;2.57;;
11006;SDS011;8186;57.652;11.968;2023-02-28T13:47:52;3.80;;;2.33;;
11006;SDS011;8186;57.652;11.968;2023-02-28T13:50:24;9.10;;;2.47;;
11006;SDS011;8186;57.652;11.968;2023-02-28T13:55:57;5.47;;;2.00;;
11006;SDS011;8186;57.652;11.968;2023-02-28T13:58:33;2.73;;;2.00;;
11006;SDS011;8186;57.652;11.968;2023-02-28T14:01:11;3.60;;;2.23;;
11006;SDS011;8186;57.652;11.968;2023-02-28T14:03:51;6.30;;;2.50;;
11006;SDS011;8186;57.652;11.968;2023-02-28T14:06:26;3.27;;;2.47;;
11006;SDS011;8186;57.652;11.968;2023-02-28T14:08:56;4.37;;;2.40;;
11006;SDS011;8186;57.652;11.968;2023-02-28T14:11:26;4.43;;;2.53;;
11006;SDS011;8186;57.652;11.968;2023-02-28T14:13:54;4.60;;;2.40;;
11006;SDS011;8186;57.652;11.968;2023-02-28T14:16:22;4.13;;;2.30;;
11006;SDS011;8186;57.652;11.968;2023-02-28T14:18:54;3.70;;;2.50;;
11006;SDS011;8186;57.652;11.968;2023-02-28T14:21:23;5.50;;;2.80;;
11006;SDS011;8186;57.652;11.968;2023-02-28T14:27:11;3.07;;;2.63;;
11006;SDS011;8186;57.652;11.968;2023-02-28T14:32:58;4.23;;;2.50;;
11006;SDS011;8186;57.652;11.968;2023-02-28T14:35:43;6.97;;;3.00;;
11006;SDS011;8186;57.652;11.968;2023-02-28T14:38:18;3.87;;;2.97;;
11006;SDS011;8186;57.652;11.968;2023-02-28T14:40:47;5.27;;;3.07;;
11006;SDS011;8186;57.652;11.968;2023-02-28T14:43:20;2.97;;;2.67;;
11006;SDS011;8186;57.652;11.968;2023-02-28T14:45:49;5.30;;;3.30;;
11006;SDS011;8186;57.652;11.968;2023-02-28T14:48:17;8.27;;;3.53;;
11006;SDS011;8186;57.652;11.968;2023-02-28T14:50:48;5.13;;;3.43;;
11006;SDS011;8186;57.652;11.968;2023-02-28T14:53:17;4.40;;;3.50;;
11006;SDS011;8186;57.652;11.968;2023-02-28T14:55:46;5.70;;;3.93;;
11006;SDS011;8186;57.652;11.968;2023-02-28T14:58:19;7.80;;;3.47;;
11006;SDS011;8186;57.652;11.968;2023-02-28T15:00:51;5.30;;;3.97;;
11006;SDS011;8186;57.652;11.968;2023-02-28T15:03:20;4.67;;;3.30;;
11006;SDS011;8186;57.652;11.968;2023-02-28T15:05:52;7.70;;;3.80;;
11006;SDS011;8186;57.652;11.968;2023-02-28T15:08:20;6.03;;;3.53;;
11006;SDS011;8186;57.652;11.968;2023-02-28T15:10:50;5.17;;;3.10;;
11006;SDS011;8186;57.652;11.968;2023-02-28T15:13:18;5.07;;;3.80;;
11006;SDS011;8186;57.652;11.968;2023-02-28T15:15:48;8.40;;;3.60;;
11006;SDS011;8186;57.652;11.968;2023-02-28T15:18:22;3.90;;;3.50;;
11006;SDS011;8186;57.652;11.968;2023-02-28T15:20:52;4.77;;;3.77;;
11006;SDS011;8186;57.652;11.968;2023-02-28T15:23:20;5.07;;;3.80;;
11006;SDS011;8186;57.652;11.968;2023-02-28T15:25:48;5.30;;;4.00;;
11006;SDS011;8186;57.652;11.968;2023-02-28T15:28:17;6.20;;;3.60;;
11006;SDS011;8186;57.652;11.968;2023-02-28T15:30:55;5.07;;;3.90;;
11006;SDS011;8186;57.652;11.968;2023-02-28T15:33:23;4.47;;;3.83;;
11006;SDS011;8186;57.652;11.968;2023-02-28T15:35:51;6.07;;;3.80;;
11006;SDS011;8186;57.652;11.968;2023-02-28T15:38:21;4.63;;;4.17;;
11006;SDS011;8186;57.652;11.968;2023-02-28T15:40:50;7.73;;;3.87;;